sensor_id;sensor_type;location;lat;lon;timestamp;P1;durP1;ratioP1;P2;durP2;ratioP2
52354;SDS011;38286;51.156;17.038;2024-01-30T00:00:00;105.95;;;34.83;;
52354;SDS011;38286;51.156;17.038;2024-01-30T00:02:25;98.13;;;30.65;;
52354;SDS011;38286;51.156;17.038;2024-01-30T00:04:59;95.93;;;31.30;;
52354;SDS011;38286;51.156;17.038;2024-01-30T00:07:26;125.50;;;35.30;;
52354;SDS011;38286;51.156;17.038;2024-01-30T00:09:53;139.90;;;40.25;;
52354;SDS011;38286;51.156;17.038;2024-01-30T00:12:20;122.75;;;37.30;;
52354;SDS011;38286;51.156;17.038;2024-01-30T00:14:46;133.98;;;37.70;;
52354;SDS011;38286;51.156;17.038;2024-01-30T00:17:14;113.90;;;33.00;;
52354;SDS011;38286;51.156;17.038;2024-01-30T00:19:40;114.60;;;35.50;;
52354;SDS011;38286;51.156;17.038;2024-01-30T00:22:06;104.07;;;32.60;;
52354;SDS011;38286;51.156;17.038;2024-01-30T00:24:33;95.93;;;32.05;;
52354;SDS011;38286;51.156;17.038;2024-01-30T00:26:59;93.45;;;30.45;;
52354;SDS011;38286;51.156;17.038;2024-01-30T00:29:25;91.13;;;29.35;;
52354;SDS011;38286;51.156;17.038;2024-01-30T00:31:55;90.85;;;28.13;;
52354;SDS011;38286;51.156;17.038;2024-01-30T00:34:21;105.97;;;32.92;;
52354;SDS011;38286;51.156;17.038;2024-01-30T00:36:47;103.10;;;33.45;;
52354;SDS011;38286;51.156;17.038;2024-01-30T00:39:13;93.40;;;29.98;;
52354;SDS011;38286;51.156;17.038;2024-01-30T00:41:41;111.00;;;34.08;;
52354;SDS011;38286;51.156;17.038;2024-01-30T00:44:07;110.00;;;33.08;;
52354;SDS011;38286;51.156;17.038;2024-01-30T00:46:33;94.38;;;29.70;;
52354;SDS011;38286;51.156;17.038;2024-01-30T00:48:59;89.95;;;29.95;;
52354;SDS011;38286;51.156;17.038;2024-01-30T00:51:25;80.60;;;28.48;;
52354;SDS011;38286;51.156;17.038;2024-01-30T00:53:51;68.53;;;23.92;;
52354;SDS011;38286;51.156;17.038;2024-01-30T00:56:18;69.05;;;24.63;;
52354;SDS011;38286;51.156;17.038;2024-01-30T00:58:45;62.35;;;24.33;;
52354;SDS011;38286;51.156;17.038;2024-01-30T01:01:10;62.88;;;21.38;;
52354;SDS011;38286;51.156;17.038;2024-01-30T01:03:37;64.82;;;24.83;;
52354;SDS011;38286;51.156;17.038;2024-01-30T01:06:03;60.03;;;21.70;;
52354;SDS011;38286;51.156;17.038;2024-01-30T01:08:29;58.47;;;21.27;;
52354;SDS011;38286;51.156;17.038;2024-01-30T01:10:55;57.78;;;20.45;;
52354;SDS011;38286;51.156;17.038;2024-01-30T01:13:22;53.28;;;20.10;;
52354;SDS011;38286;51.156;17.038;2024-01-30T01:15:48;61.13;;;21.75;;
52354;SDS011;38286;51.156;17.038;2024-01-30T01:18:14;63.88;;;20.85;;
52354;SDS011;38286;51.156;17.038;2024-01-30T01:20:41;58.75;;;20.58;;
52354;SDS011;38286;51.156;17.038;2024-01-30T01:23:07;59.53;;;19.17;;
52354;SDS011;38286;51.156;17.038;2024-01-30T01:25:33;51.13;;;19.42;;
52354;SDS011;38286;51.156;17.038;2024-01-30T01:27:59;57.75;;;19.23;;
52354;SDS011;38286;51.156;17.038;2024-01-30T01:30:26;45.13;;;16.80;;
52354;SDS011;38286;51.156;17.038;2024-01-30T01:32:55;49.75;;;19.30;;
52354;SDS011;38286;51.156;17.038;2024-01-30T01:35:23;50.78;;;17.88;;
52354;SDS011;38286;51.156;17.038;2024-01-30T01:37:53;49.08;;;19.20;;
52354;SDS011;38286;51.156;17.038;2024-01-30T01:40:24;50.53;;;18.65;;
52354;SDS011;38286;51.156;17.038;2024-01-30T01:42:51;51.03;;;17.98;;
52354;SDS011;38286;51.156;17.038;2024-01-30T01:45:17;41.30;;;17.35;;
52354;SDS011;38286;51.156;17.038;2024-01-30T01:47:45;47.38;;;17.92;;
52354;SDS011;38286;51.156;17.038;2024-01-30T01:50:21;47.85;;;17.85;;
52354;SDS011;38286;51.156;17.038;2024-01-30T01:52:47;47.80;;;18.15;;
52354;SDS011;38286;51.156;17.038;2024-01-30T01:55:17;44.90;;;18.05;;
52354;SDS011;38286;51.156;17.038;2024-01-30T01:57:47;45.17;;;18.42;;
52354;SDS011;38286;51.156;17.038;2024-01-30T02:00:13;50.90;;;18.20;;
52354;SDS011;38286;51.156;17.038;2024-01-30T02:02:41;42.78;;;18.55;;
52354;SDS011;38286;51.156;17.038;2024-01-30T02:05:08;45.40;;;17.45;;
52354;SDS011;38286;51.156;17.038;2024-01-30T02:07:35;46.25;;;17.88;;
52354;SDS011;38286;51.156;17.038;2024-01-30T02:10:00;47.83;;;18.42;;
52354;SDS011;38286;51.156;17.038;2024-01-30T02:12:27;50.00;;;19.83;;
52354;SDS011;38286;51.156;17.038;2024-01-30T02:14:52;55.20;;;20.45;;
52354;SDS011;38286;51.156;17.038;2024-01-30T02:17:21;50.53;;;17.92;;
52354;SDS011;38286;51.156;17.038;2024-01-30T02:19:48;60.88;;;18.58;;
52354;SDS011;38286;51.156;17.038;2024-01-30T02:22:15;42.72;;;18.08;;
52354;SDS011;38286;51.156;17.038;2024-01-30T02:24:41;40.58;;;16.48;;
52354;SDS011;38286;51.156;17.038;2024-01-30T02:27:07;38.90;;;16.50;;
52354;SDS011;38286;51.156;17.038;2024-01-30T02:29:33;46.05;;;18.05;;
52354;SDS011;38286;51.156;17.038;2024-01-30T02:32:00;48.63;;;17.42;;
52354;SDS011;38286;51.156;17.038;2024-01-30T02:34:26;48.50;;;17.85;;
52354;SDS011;38286;51.156;17.038;2024-01-30T02:36:52;47.80;;;18.60;;
52354;SDS011;38286;51.156;17.038;2024-01-30T02:39:18;56.83;;;19.85;;
52354;SDS011;38286;51.156;17.038;2024-01-30T02:41:44;52.28;;;20.20;;
52354;SDS011;38286;51.156;17.038;2024-01-30T02:44:10;55.92;;;19.90;;
52354;SDS011;38286;51.156;17.038;2024-01-30T02:46:37;47.25;;;19.17;;
52354;SDS011;38286;51.156;17.038;2024-01-30T02:49:03;45.25;;;17.95;;
52354;SDS011;38286;51.156;17.038;2024-01-30T02:51:29;49.05;;;19.23;;
52354;SDS011;38286;51.156;17.038;2024-01-30T02:53:55;46.47;;;19.08;;
52354;SDS011;38286;51.156;17.038;2024-01-30T02:56:21;49.63;;;16.30;;
52354;SDS011;38286;51.156;17.038;2024-01-30T02:58:47;47.63;;;18.75;;
52354;SDS011;38286;51.156;17.038;2024-01-30T03:01:13;53.97;;;18.10;;
52354;SDS011;38286;51.156;17.038;2024-01-30T03:03:39;42.08;;;17.25;;
52354;SDS011;38286;51.156;17.038;2024-01-30T03:06:06;48.63;;;16.65;;
52354;SDS011;38286;51.156;17.038;2024-01-30T03:08:32;45.08;;;16.58;;
52354;SDS011;38286;51.156;17.038;2024-01-30T03:11:00;45.08;;;16.65;;
52354;SDS011;38286;51.156;17.038;2024-01-30T03:13:26;42.03;;;15.45;;
52354;SDS011;38286;51.156;17.038;2024-01-30T03:15:53;40.22;;;16.25;;
52354;SDS011;38286;51.156;17.038;2024-01-30T03:18:19;46.35;;;17.35;;
52354;SDS011;38286;51.156;17.038;2024-01-30T03:20:45;50.63;;;17.58;;
52354;SDS011;38286;51.156;17.038;2024-01-30T03:23:11;49.70;;;16.45;;
52354;SDS011;38286;51.156;17.038;2024-01-30T03:25:37;45.20;;;18.13;;
52354;SDS011;38286;51.156;17.038;2024-01-30T03:28:03;50.15;;;18.08;;
52354;SDS011;38286;51.156;17.038;2024-01-30T03:30:30;50.28;;;19.30;;
52354;SDS011;38286;51.156;17.038;2024-01-30T03:32:57;46.20;;;17.80;;
52354;SDS011;38286;51.156;17.038;2024-01-30T03:35:23;43.28;;;17.05;;
52354;SDS011;38286;51.156;17.038;2024-01-30T03:37:49;44.90;;;18.35;;
52354;SDS011;38286;51.156;17.038;2024-01-30T03:40:18;49.08;;;16.85;;
52354;SDS011;38286;51.156;17.038;2024-01-30T03:42:44;45.42;;;17.23;;
52354;SDS011;38286;51.156;17.038;2024-01-30T03:45:10;43.15;;;16.73;;
52354;SDS011;38286;51.156;17.038;2024-01-30T03:47:36;45.53;;;16.77;;
52354;SDS011;38286;51.156;17.038;2024-01-30T03:50:02;47.80;;;17.75;;
52354;SDS011;38286;51.156;17.038;2024-01-30T03:52:30;44.95;;;16.38;;
52354;SDS011;38286;51.156;17.038;2024-01-30T03:54:56;42.42;;;16.02;;
52354;SDS011;38286;51.156;17.038;2024-01-30T03:57:22;40.97;;;17.17;;
52354;SDS011;38286;51.156;17.038;2024-01-30T03:59:48;39.55;;;16.80;;
52354;SDS011;38286;51.156;17.038;2024-01-30T04:02:14;41.67;;;17.40;;
52354;SDS011;38286;51.156;17.038;2024-01-30T04:04:40;39.03;;;15.20;;
52354;SDS011;38286;51.156;17.038;2024-01-30T04:07:06;46.38;;;15.48;;
52354;SDS011;38286;51.156;17.038;2024-01-30T04:09:32;35.13;;;14.25;;
52354;SDS011;38286;51.156;17.038;2024-01-30T04:11:59;36.10;;;14.38;;
52354;SDS011;38286;51.156;17.038;2024-01-30T04:14:25;37.78;;;15.23;;
52354;SDS011;38286;51.156;17.038;2024-01-30T04:16:51;34.13;;;14.32;;
52354;SDS011;38286;51.156;17.038;2024-01-30T04:19:17;31.73;;;13.88;;
52354;SDS011;38286;51.156;17.038;2024-01-30T04:21:43;36.17;;;14.35;;
52354;SDS011;38286;51.156;17.038;2024-01-30T04:24:10;36.65;;;14.07;;
52354;SDS011;38286;51.156;17.038;2024-01-30T04:26:36;33.72;;;14.82;;
52354;SDS011;38286;51.156;17.038;2024-01-30T04:29:02;34.63;;;13.15;;
52354;SDS011;38286;51.156;17.038;2024-01-30T04:31:28;31.95;;;13.60;;
52354;SDS011;38286;51.156;17.038;2024-01-30T04:33:54;33.75;;;13.48;;
52354;SDS011;38286;51.156;17.038;2024-01-30T04:36:20;37.70;;;14.90;;
52354;SDS011;38286;51.156;17.038;2024-01-30T04:38:46;50.10;;;18.95;;
52354;SDS011;38286;51.156;17.038;2024-01-30T04:41:12;67.82;;;22.67;;
52354;SDS011;38286;51.156;17.038;2024-01-30T04:43:38;51.58;;;19.80;;
52354;SDS011;38286;51.156;17.038;2024-01-30T04:46:04;45.83;;;18.20;;
52354;SDS011;38286;51.156;17.038;2024-01-30T04:48:31;49.47;;;19.08;;
52354;SDS011;38286;51.156;17.038;2024-01-30T04:50:57;50.75;;;19.35;;
52354;SDS011;38286;51.156;17.038;2024-01-30T04:53:23;41.17;;;18.33;;
52354;SDS011;38286;51.156;17.038;2024-01-30T04:55:48;41.88;;;17.10;;
52354;SDS011;38286;51.156;17.038;2024-01-30T04:58:15;35.67;;;15.73;;
52354;SDS011;38286;51.156;17.038;2024-01-30T05:00:40;39.65;;;15.88;;
52354;SDS011;38286;51.156;17.038;2024-01-30T05:03:07;43.90;;;16.17;;
52354;SDS011;38286;51.156;17.038;2024-01-30T05:05:33;34.83;;;15.07;;
52354;SDS011;38286;51.156;17.038;2024-01-30T05:07:59;37.15;;;14.82;;
52354;SDS011;38286;51.156;17.038;2024-01-30T05:10:26;39.20;;;16.83;;
52354;SDS011;38286;51.156;17.038;2024-01-30T05:12:54;40.08;;;19.58;;
52354;SDS011;38286;51.156;17.038;2024-01-30T05:15:20;47.47;;;19.52;;
52354;SDS011;38286;51.156;17.038;2024-01-30T05:17:46;43.97;;;18.83;;
52354;SDS011;38286;51.156;17.038;2024-01-30T05:20:12;43.08;;;17.90;;
52354;SDS011;38286;51.156;17.038;2024-01-30T05:22:38;46.20;;;19.20;;
52354;SDS011;38286;51.156;17.038;2024-01-30T05:25:10;52.67;;;19.75;;
52354;SDS011;38286;51.156;17.038;2024-01-30T05:27:37;47.38;;;19.90;;
52354;SDS011;38286;51.156;17.038;2024-01-30T05:30:04;45.70;;;18.42;;
52354;SDS011;38286;51.156;17.038;2024-01-30T05:32:35;43.78;;;18.65;;
52354;SDS011;38286;51.156;17.038;2024-01-30T05:35:00;40.60;;;16.85;;
52354;SDS011;38286;51.156;17.038;2024-01-30T05:37:27;41.58;;;17.88;;
52354;SDS011;38286;51.156;17.038;2024-01-30T05:39:53;42.95;;;17.63;;
52354;SDS011;38286;51.156;17.038;2024-01-30T05:42:19;37.58;;;17.55;;
52354;SDS011;38286;51.156;17.038;2024-01-30T05:44:45;42.05;;;18.67;;
52354;SDS011;38286;51.156;17.038;2024-01-30T05:47:12;44.17;;;18.88;;
52354;SDS011;38286;51.156;17.038;2024-01-30T05:49:38;43.30;;;17.73;;
52354;SDS011;38286;51.156;17.038;2024-01-30T05:52:04;43.20;;;17.02;;
52354;SDS011;38286;51.156;17.038;2024-01-30T05:54:31;42.47;;;17.42;;
52354;SDS011;38286;51.156;17.038;2024-01-30T05:56:58;39.35;;;16.63;;
52354;SDS011;38286;51.156;17.038;2024-01-30T05:59:25;47.80;;;17.23;;
52354;SDS011;38286;51.156;17.038;2024-01-30T06:01:52;45.88;;;17.92;;
52354;SDS011;38286;51.156;17.038;2024-01-30T06:04:18;34.30;;;15.98;;
52354;SDS011;38286;51.156;17.038;2024-01-30T06:06:44;41.25;;;16.42;;
52354;SDS011;38286;51.156;17.038;2024-01-30T06:11:58;36.03;;;16.23;;
52354;SDS011;38286;51.156;17.038;2024-01-30T06:14:25;46.78;;;18.30;;
52354;SDS011;38286;51.156;17.038;2024-01-30T06:16:51;49.15;;;19.80;;
52354;SDS011;38286;51.156;17.038;2024-01-30T06:19:17;45.83;;;18.05;;
52354;SDS011;38286;51.156;17.038;2024-01-30T06:21:43;49.53;;;20.52;;
52354;SDS011;38286;51.156;17.038;2024-01-30T06:24:10;47.53;;;17.48;;
52354;SDS011;38286;51.156;17.038;2024-01-30T06:26:36;47.38;;;19.83;;
52354;SDS011;38286;51.156;17.038;2024-01-30T06:29:02;43.63;;;19.13;;
52354;SDS011;38286;51.156;17.038;2024-01-30T06:31:28;46.42;;;19.85;;
52354;SDS011;38286;51.156;17.038;2024-01-30T06:33:54;51.78;;;20.20;;
52354;SDS011;38286;51.156;17.038;2024-01-30T06:36:21;54.47;;;19.50;;
52354;SDS011;38286;51.156;17.038;2024-01-30T06:38:46;55.05;;;21.48;;
52354;SDS011;38286;51.156;17.038;2024-01-30T06:41:12;47.55;;;19.42;;
52354;SDS011;38286;51.156;17.038;2024-01-30T06:43:39;56.42;;;21.15;;
52354;SDS011;38286;51.156;17.038;2024-01-30T06:46:06;51.38;;;21.23;;
52354;SDS011;38286;51.156;17.038;2024-01-30T06:48:32;55.08;;;22.52;;
52354;SDS011;38286;51.156;17.038;2024-01-30T06:50:58;59.15;;;23.77;;
52354;SDS011;38286;51.156;17.038;2024-01-30T06:53:24;65.85;;;27.13;;
52354;SDS011;38286;51.156;17.038;2024-01-30T06:55:52;64.07;;;25.23;;
52354;SDS011;38286;51.156;17.038;2024-01-30T06:58:17;70.43;;;27.88;;
52354;SDS011;38286;51.156;17.038;2024-01-30T07:00:43;55.75;;;25.27;;
52354;SDS011;38286;51.156;17.038;2024-01-30T07:03:09;74.47;;;28.70;;
52354;SDS011;38286;51.156;17.038;2024-01-30T07:05:35;68.22;;;27.35;;
52354;SDS011;38286;51.156;17.038;2024-01-30T07:08:01;69.75;;;25.90;;
52354;SDS011;38286;51.156;17.038;2024-01-30T07:10:27;66.35;;;28.65;;
52354;SDS011;38286;51.156;17.038;2024-01-30T07:12:55;66.15;;;26.65;;
52354;SDS011;38286;51.156;17.038;2024-01-30T07:15:23;62.67;;;26.00;;
52354;SDS011;38286;51.156;17.038;2024-01-30T07:17:48;69.90;;;29.15;;
52354;SDS011;38286;51.156;17.038;2024-01-30T07:20:15;65.07;;;27.95;;
52354;SDS011;38286;51.156;17.038;2024-01-30T07:22:45;77.53;;;30.35;;
52354;SDS011;38286;51.156;17.038;2024-01-30T07:25:13;79.82;;;31.48;;
52354;SDS011;38286;51.156;17.038;2024-01-30T07:27:39;85.68;;;32.90;;
52354;SDS011;38286;51.156;17.038;2024-01-30T07:30:05;83.53;;;32.25;;
52354;SDS011;38286;51.156;17.038;2024-01-30T07:32:32;84.55;;;33.05;;
52354;SDS011;38286;51.156;17.038;2024-01-30T07:34:59;83.97;;;30.95;;
52354;SDS011;38286;51.156;17.038;2024-01-30T07:37:25;84.10;;;31.17;;
52354;SDS011;38286;51.156;17.038;2024-01-30T07:39:51;73.28;;;31.35;;
52354;SDS011;38286;51.156;17.038;2024-01-30T07:42:17;91.00;;;32.40;;
52354;SDS011;38286;51.156;17.038;2024-01-30T07:44:43;72.65;;;29.80;;
52354;SDS011;38286;51.156;17.038;2024-01-30T07:47:09;71.32;;;27.95;;
52354;SDS011;38286;51.156;17.038;2024-01-30T07:49:35;68.82;;;28.17;;
52354;SDS011;38286;51.156;17.038;2024-01-30T07:52:03;66.80;;;27.88;;
52354;SDS011;38286;51.156;17.038;2024-01-30T07:54:33;88.43;;;32.30;;
52354;SDS011;38286;51.156;17.038;2024-01-30T07:57:00;105.90;;;37.25;;
52354;SDS011;38286;51.156;17.038;2024-01-30T07:59:27;87.32;;;32.45;;
52354;SDS011;38286;51.156;17.038;2024-01-30T08:01:53;98.05;;;34.88;;
52354;SDS011;38286;51.156;17.038;2024-01-30T08:04:19;105.13;;;38.90;;
52354;SDS011;38286;51.156;17.038;2024-01-30T08:06:46;57.95;;;25.45;;
52354;SDS011;38286;51.156;17.038;2024-01-30T08:09:14;101.85;;;36.42;;
52354;SDS011;38286;51.156;17.038;2024-01-30T08:11:40;101.55;;;33.92;;
52354;SDS011;38286;51.156;17.038;2024-01-30T08:14:09;43.00;;;17.60;;
52354;SDS011;38286;51.156;17.038;2024-01-30T08:16:34;68.53;;;26.63;;
52354;SDS011;38286;51.156;17.038;2024-01-30T08:19:00;33.30;;;16.50;;
52354;SDS011;38286;51.156;17.038;2024-01-30T08:21:27;32.25;;;14.65;;
52354;SDS011;38286;51.156;17.038;2024-01-30T08:23:53;27.65;;;13.32;;
52354;SDS011;38286;51.156;17.038;2024-01-30T08:26:19;32.40;;;15.00;;
52354;SDS011;38286;51.156;17.038;2024-01-30T08:28:45;23.08;;;11.48;;
52354;SDS011;38286;51.156;17.038;2024-01-30T08:31:11;21.73;;;10.20;;
52354;SDS011;38286;51.156;17.038;2024-01-30T08:33:38;18.13;;;9.73;;
52354;SDS011;38286;51.156;17.038;2024-01-30T08:36:10;16.20;;;9.23;;
52354;SDS011;38286;51.156;17.038;2024-01-30T08:38:39;13.57;;;7.55;;
52354;SDS011;38286;51.156;17.038;2024-01-30T08:41:11;15.73;;;7.65;;
52354;SDS011;38286;51.156;17.038;2024-01-30T08:43:37;15.73;;;7.07;;
52354;SDS011;38286;51.156;17.038;2024-01-30T08:46:06;17.15;;;7.20;;
52354;SDS011;38286;51.156;17.038;2024-01-30T08:48:32;17.83;;;7.45;;
52354;SDS011;38286;51.156;17.038;2024-01-30T08:50:58;17.08;;;7.15;;
52354;SDS011;38286;51.156;17.038;2024-01-30T08:53:24;10.57;;;6.15;;
52354;SDS011;38286;51.156;17.038;2024-01-30T08:55:50;15.13;;;6.90;;
52354;SDS011;38286;51.156;17.038;2024-01-30T08:58:16;14.45;;;5.65;;
52354;SDS011;38286;51.156;17.038;2024-01-30T09:00:44;11.82;;;6.00;;
52354;SDS011;38286;51.156;17.038;2024-01-30T09:03:10;13.82;;;6.00;;
52354;SDS011;38286;51.156;17.038;2024-01-30T09:05:36;9.88;;;5.22;;
52354;SDS011;38286;51.156;17.038;2024-01-30T09:08:03;14.43;;;5.50;;
52354;SDS011;38286;51.156;17.038;2024-01-30T09:10:29;15.98;;;6.78;;
52354;SDS011;38286;51.156;17.038;2024-01-30T09:12:55;11.18;;;6.30;;
52354;SDS011;38286;51.156;17.038;2024-01-30T09:15:22;12.43;;;6.18;;
52354;SDS011;38286;51.156;17.038;2024-01-30T09:17:48;14.50;;;6.25;;
52354;SDS011;38286;51.156;17.038;2024-01-30T09:20:14;12.57;;;5.95;;
52354;SDS011;38286;51.156;17.038;2024-01-30T09:22:40;11.52;;;5.65;;
52354;SDS011;38286;51.156;17.038;2024-01-30T09:25:06;13.95;;;6.10;;
52354;SDS011;38286;51.156;17.038;2024-01-30T09:27:33;8.85;;;5.18;;
52354;SDS011;38286;51.156;17.038;2024-01-30T09:29:59;10.98;;;5.22;;
52354;SDS011;38286;51.156;17.038;2024-01-30T09:32:25;11.60;;;5.65;;
52354;SDS011;38286;51.156;17.038;2024-01-30T09:34:51;12.73;;;4.78;;
52354;SDS011;38286;51.156;17.038;2024-01-30T09:37:19;12.75;;;5.10;;
52354;SDS011;38286;51.156;17.038;2024-01-30T09:39:46;10.18;;;5.22;;
52354;SDS011;38286;51.156;17.038;2024-01-30T09:44:53;11.35;;;5.20;;
52354;SDS011;38286;51.156;17.038;2024-01-30T09:47:21;8.88;;;4.78;;
52354;SDS011;38286;51.156;17.038;2024-01-30T09:49:46;13.75;;;5.10;;
52354;SDS011;38286;51.156;17.038;2024-01-30T09:52:13;8.82;;;5.38;;
52354;SDS011;38286;51.156;17.038;2024-01-30T09:54:40;9.93;;;4.93;;
52354;SDS011;38286;51.156;17.038;2024-01-30T09:57:09;9.60;;;5.15;;
52354;SDS011;38286;51.156;17.038;2024-01-30T09:59:34;12.82;;;4.90;;
52354;SDS011;38286;51.156;17.038;2024-01-30T10:02:00;10.90;;;4.63;;
52354;SDS011;38286;51.156;17.038;2024-01-30T10:04:28;7.35;;;4.22;;
52354;SDS011;38286;51.156;17.038;2024-01-30T10:06:54;9.40;;;4.22;;
52354;SDS011;38286;51.156;17.038;2024-01-30T10:09:20;9.45;;;4.57;;
52354;SDS011;38286;51.156;17.038;2024-01-30T10:11:48;8.20;;;4.40;;
52354;SDS011;38286;51.156;17.038;2024-01-30T10:14:15;8.98;;;4.25;;
52354;SDS011;38286;51.156;17.038;2024-01-30T10:16:42;7.97;;;4.00;;
52354;SDS011;38286;51.156;17.038;2024-01-30T10:19:07;7.38;;;4.00;;
52354;SDS011;38286;51.156;17.038;2024-01-30T10:21:34;9.90;;;4.30;;
52354;SDS011;38286;51.156;17.038;2024-01-30T10:24:00;7.60;;;3.70;;
52354;SDS011;38286;51.156;17.038;2024-01-30T10:26:26;8.05;;;4.13;;
52354;SDS011;38286;51.156;17.038;2024-01-30T10:28:55;9.57;;;4.32;;
52354;SDS011;38286;51.156;17.038;2024-01-30T10:31:21;8.95;;;4.40;;
52354;SDS011;38286;51.156;17.038;2024-01-30T10:33:48;6.70;;;4.13;;
52354;SDS011;38286;51.156;17.038;2024-01-30T10:36:14;7.82;;;4.22;;
52354;SDS011;38286;51.156;17.038;2024-01-30T10:38:41;7.57;;;4.13;;
52354;SDS011;38286;51.156;17.038;2024-01-30T10:41:08;9.88;;;4.43;;
52354;SDS011;38286;51.156;17.038;2024-01-30T10:43:40;9.73;;;4.47;;
52354;SDS011;38286;51.156;17.038;2024-01-30T10:46:13;10.18;;;4.93;;
52354;SDS011;38286;51.156;17.038;2024-01-30T10:48:46;9.40;;;4.70;;
52354;SDS011;38286;51.156;17.038;2024-01-30T10:51:16;8.75;;;4.40;;
52354;SDS011;38286;51.156;17.038;2024-01-30T10:53:43;9.70;;;4.63;;
52354;SDS011;38286;51.156;17.038;2024-01-30T10:56:10;7.85;;;4.30;;
52354;SDS011;38286;51.156;17.038;2024-01-30T10:58:36;6.70;;;4.13;;
52354;SDS011;38286;51.156;17.038;2024-01-30T11:01:03;6.60;;;4.00;;
52354;SDS011;38286;51.156;17.038;2024-01-30T11:03:32;7.93;;;4.00;;
52354;SDS011;38286;51.156;17.038;2024-01-30T11:06:01;7.63;;;4.07;;
52354;SDS011;38286;51.156;17.038;2024-01-30T11:08:31;8.70;;;4.35;;
52354;SDS011;38286;51.156;17.038;2024-01-30T11:11:00;7.82;;;4.50;;
52354;SDS011;38286;51.156;17.038;2024-01-30T11:13:29;10.48;;;4.63;;
52354;SDS011;38286;51.156;17.038;2024-01-30T11:16:01;9.10;;;4.05;;
52354;SDS011;38286;51.156;17.038;2024-01-30T11:18:31;10.13;;;4.35;;
52354;SDS011;38286;51.156;17.038;2024-01-30T11:20:59;11.65;;;4.43;;
52354;SDS011;38286;51.156;17.038;2024-01-30T11:23:27;11.23;;;5.07;;
52354;SDS011;38286;51.156;17.038;2024-01-30T11:25:54;8.20;;;4.45;;
52354;SDS011;38286;51.156;17.038;2024-01-30T11:28:23;7.30;;;4.55;;
52354;SDS011;38286;51.156;17.038;2024-01-30T11:30:49;9.02;;;4.88;;
52354;SDS011;38286;51.156;17.038;2024-01-30T11:33:28;9.68;;;5.07;;
52354;SDS011;38286;51.156;17.038;2024-01-30T11:35:58;9.98;;;4.80;;
52354;SDS011;38286;51.156;17.038;2024-01-30T11:38:28;9.10;;;5.05;;
52354;SDS011;38286;51.156;17.038;2024-01-30T11:40:54;10.82;;;4.65;;
52354;SDS011;38286;51.156;17.038;2024-01-30T11:43:23;7.82;;;4.35;;
52354;SDS011;38286;51.156;17.038;2024-01-30T11:45:52;8.40;;;4.55;;
52354;SDS011;38286;51.156;17.038;2024-01-30T11:48:18;8.65;;;4.75;;
52354;SDS011;38286;51.156;17.038;2024-01-30T11:50:46;9.90;;;5.47;;
52354;SDS011;38286;51.156;17.038;2024-01-30T11:53:12;9.85;;;4.97;;
52354;SDS011;38286;51.156;17.038;2024-01-30T11:55:38;9.88;;;5.05;;
52354;SDS011;38286;51.156;17.038;2024-01-30T11:58:04;10.90;;;5.07;;
52354;SDS011;38286;51.156;17.038;2024-01-30T12:00:30;10.55;;;5.25;;
52354;SDS011;38286;51.156;17.038;2024-01-30T12:02:56;8.80;;;5.28;;
52354;SDS011;38286;51.156;17.038;2024-01-30T12:05:24;11.98;;;5.57;;
52354;SDS011;38286;51.156;17.038;2024-01-30T12:07:50;12.27;;;5.35;;
52354;SDS011;38286;51.156;17.038;2024-01-30T12:10:17;10.35;;;5.60;;
52354;SDS011;38286;51.156;17.038;2024-01-30T12:12:47;9.23;;;5.28;;
52354;SDS011;38286;51.156;17.038;2024-01-30T12:15:15;10.60;;;5.53;;
52354;SDS011;38286;51.156;17.038;2024-01-30T12:17:41;13.68;;;5.78;;
52354;SDS011;38286;51.156;17.038;2024-01-30T12:20:08;13.13;;;5.63;;
52354;SDS011;38286;51.156;17.038;2024-01-30T12:22:43;13.77;;;5.75;;
52354;SDS011;38286;51.156;17.038;2024-01-30T12:25:10;10.73;;;5.70;;
52354;SDS011;38286;51.156;17.038;2024-01-30T12:27:39;11.23;;;5.43;;
52354;SDS011;38286;51.156;17.038;2024-01-30T12:30:09;10.02;;;5.47;;
52354;SDS011;38286;51.156;17.038;2024-01-30T12:32:39;11.63;;;5.25;;
52354;SDS011;38286;51.156;17.038;2024-01-30T12:35:25;11.20;;;5.25;;
52354;SDS011;38286;51.156;17.038;2024-01-30T12:37:51;9.18;;;4.93;;
52354;SDS011;38286;51.156;17.038;2024-01-30T12:40:17;9.20;;;5.15;;
52354;SDS011;38286;51.156;17.038;2024-01-30T12:42:45;8.35;;;4.82;;
52354;SDS011;38286;51.156;17.038;2024-01-30T12:45:14;10.65;;;4.72;;
52354;SDS011;38286;51.156;17.038;2024-01-30T12:47:41;9.32;;;5.50;;
52354;SDS011;38286;51.156;17.038;2024-01-30T12:50:07;9.45;;;5.00;;
52354;SDS011;38286;51.156;17.038;2024-01-30T12:52:35;9.70;;;5.50;;
52354;SDS011;38286;51.156;17.038;2024-01-30T12:55:01;9.75;;;5.55;;
52354;SDS011;38286;51.156;17.038;2024-01-30T12:57:29;10.52;;;5.43;;
52354;SDS011;38286;51.156;17.038;2024-01-30T12:59:56;11.35;;;5.45;;
52354;SDS011;38286;51.156;17.038;2024-01-30T13:02:22;7.75;;;4.82;;
52354;SDS011;38286;51.156;17.038;2024-01-30T13:04:49;9.85;;;5.15;;
52354;SDS011;38286;51.156;17.038;2024-01-30T13:07:15;9.70;;;5.40;;
52354;SDS011;38286;51.156;17.038;2024-01-30T13:09:41;9.50;;;5.00;;
52354;SDS011;38286;51.156;17.038;2024-01-30T13:12:07;8.77;;;5.53;;
52354;SDS011;38286;51.156;17.038;2024-01-30T13:14:33;10.38;;;5.75;;
52354;SDS011;38286;51.156;17.038;2024-01-30T13:16:59;11.65;;;5.57;;
52354;SDS011;38286;51.156;17.038;2024-01-30T13:19:26;10.57;;;5.80;;
52354;SDS011;38286;51.156;17.038;2024-01-30T13:21:52;9.73;;;5.47;;
52354;SDS011;38286;51.156;17.038;2024-01-30T13:24:18;10.88;;;6.13;;
52354;SDS011;38286;51.156;17.038;2024-01-30T13:26:46;13.30;;;6.55;;
52354;SDS011;38286;51.156;17.038;2024-01-30T13:29:13;10.18;;;6.05;;
52354;SDS011;38286;51.156;17.038;2024-01-30T13:31:39;13.15;;;5.85;;
52354;SDS011;38286;51.156;17.038;2024-01-30T13:34:05;13.65;;;6.20;;
52354;SDS011;38286;51.156;17.038;2024-01-30T13:36:33;12.60;;;6.18;;
52354;SDS011;38286;51.156;17.038;2024-01-30T13:38:59;13.10;;;6.90;;
52354;SDS011;38286;51.156;17.038;2024-01-30T13:41:25;14.80;;;6.50;;
52354;SDS011;38286;51.156;17.038;2024-01-30T13:43:51;11.85;;;6.18;;
52354;SDS011;38286;51.156;17.038;2024-01-30T13:46:17;13.85;;;6.47;;
52354;SDS011;38286;51.156;17.038;2024-01-30T13:48:45;10.85;;;6.55;;
52354;SDS011;38286;51.156;17.038;2024-01-30T13:51:12;12.10;;;5.93;;
52354;SDS011;38286;51.156;17.038;2024-01-30T13:53:38;9.40;;;6.43;;
52354;SDS011;38286;51.156;17.038;2024-01-30T13:56:04;12.40;;;6.38;;
52354;SDS011;38286;51.156;17.038;2024-01-30T13:58:32;13.63;;;6.43;;
52354;SDS011;38286;51.156;17.038;2024-01-30T14:00:59;10.98;;;6.47;;
52354;SDS011;38286;51.156;17.038;2024-01-30T14:03:25;10.35;;;6.40;;
52354;SDS011;38286;51.156;17.038;2024-01-30T14:05:51;13.65;;;6.80;;
52354;SDS011;38286;51.156;17.038;2024-01-30T14:08:17;13.38;;;6.55;;
52354;SDS011;38286;51.156;17.038;2024-01-30T14:10:43;12.38;;;6.43;;
52354;SDS011;38286;51.156;17.038;2024-01-30T14:13:10;13.82;;;8.02;;
52354;SDS011;38286;51.156;17.038;2024-01-30T14:15:37;15.18;;;7.90;;
52354;SDS011;38286;51.156;17.038;2024-01-30T14:18:03;15.75;;;7.85;;